PUA1502 SUMU-SABE
Flight info
| Callsign | PUA1502 |
|---|---|
| Flight time | 0h 29m |
| Altitude | 18000 |
| Route | DAGUS A306 UGIMI UGIMI8R |
| Aircraft | A320/M-SDE3FGHIRWY/LB1 |
Departure
| Time | 2026-05-07 23:40 |
|---|---|
| Airport | Carrasco General Cesáreo L. Berisso International Airport (SUMU) |
Arrival
| Time | 2026-05-08 00:10 |
|---|---|
| Airport | Aeroparque Jorge Newbery (SABE) |
| Time | Latitude | Longitude | Altitude | Speed | Heading |
|---|---|---|---|---|---|
| 2026-05-07 23:19 | -34.83706 | -56.01922 | 86 ft | 0 kts | 142° |
| 2026-05-07 23:31 | -34.83705 | -56.01922 | 82 ft | 1 kts | 142° |
| 2026-05-07 23:31 | -34.83686 | -56.01941 | 83 ft | 4 kts | 139° |
| 2026-05-07 23:31 | -34.83667 | -56.01963 | 86 ft | 4 kts | 132° |
| 2026-05-07 23:31 | -34.83650 | -56.01989 | 87 ft | 4 kts | 113° |
| 2026-05-07 23:32 | -34.83647 | -56.02015 | 86 ft | 2 kts | 54° |
| 2026-05-07 23:32 | -34.83650 | -56.02021 | 87 ft | 0 kts | 53° |
| 2026-05-07 23:34 | -34.83636 | -56.01998 | 87 ft | 9 kts | 53° |
| 2026-05-07 23:35 | -34.83602 | -56.01942 | 86 ft | 8 kts | 54° |
| 2026-05-07 23:35 | -34.83574 | -56.01894 | 86 ft | 6 kts | 56° |
| 2026-05-07 23:35 | -34.83546 | -56.01843 | 85 ft | 10 kts | 55° |
| 2026-05-07 23:35 | -34.83497 | -56.01774 | 86 ft | 10 kts | 31° |
| 2026-05-07 23:36 | -34.83434 | -56.01780 | 85 ft | 10 kts | 329° |
| 2026-05-07 23:36 | -34.83375 | -56.01832 | 84 ft | 11 kts | 325° |
| 2026-05-07 23:36 | -34.83295 | -56.01841 | 86 ft | 12 kts | 27° |
| 2026-05-07 23:36 | -34.83242 | -56.01765 | 85 ft | 11 kts | 53° |
| 2026-05-07 23:37 | -34.83199 | -56.01694 | 85 ft | 10 kts | 53° |
| 2026-05-07 23:37 | -34.83157 | -56.01627 | 84 ft | 13 kts | 53° |
| 2026-05-07 23:37 | -34.83088 | -56.01516 | 83 ft | 17 kts | 52° |
| 2026-05-07 23:37 | -34.83023 | -56.01404 | 86 ft | 16 kts | 54° |
| 2026-05-07 23:38 | -34.82962 | -56.01303 | 84 ft | 14 kts | 54° |
| 2026-05-07 23:38 | -34.82889 | -56.01239 | 84 ft | 12 kts | 5° |
| 2026-05-07 23:38 | -34.82814 | -56.01289 | 85 ft | 13 kts | 323° |
| 2026-05-07 23:38 | -34.82789 | -56.01358 | 87 ft | 5 kts | 232° |
| 2026-05-07 23:39 | -34.82793 | -56.01364 | 86 ft | 0 kts | 232° |
| 2026-05-07 23:39 | -34.82811 | -56.01393 | 85 ft | 27 kts | 232° |
| 2026-05-07 23:40 | -34.83069 | -56.01828 | 82 ft | 95 kts | 233° |
| 2026-05-07 23:40 | -34.83574 | -56.02653 | 86 ft | 146 kts | 232° |
| 2026-05-07 23:40 | -34.84223 | -56.03691 | 578 ft | 153 kts | 237° |
| 2026-05-07 23:40 | -34.84864 | -56.04726 | 1314 ft | 154 kts | 238° |
| 2026-05-07 23:41 | -34.85554 | -56.05836 | 1730 ft | 176 kts | 237° |
| 2026-05-07 23:41 | -34.86337 | -56.07101 | 2060 ft | 196 kts | 237° |
| 2026-05-07 23:41 | -34.87189 | -56.08485 | 2481 ft | 218 kts | 237° |
| 2026-05-07 23:41 | -34.88116 | -56.10014 | 3123 ft | 229 kts | 237° |
| 2026-05-07 23:42 | -34.89068 | -56.11598 | 3760 ft | 235 kts | 237° |
| 2026-05-07 23:42 | -34.90015 | -56.13207 | 4400 ft | 237 kts | 237° |
| 2026-05-07 23:42 | -34.90775 | -56.14991 | 5026 ft | 239 kts | 257° |
| 2026-05-07 23:42 | -34.91039 | -56.16995 | 5666 ft | 241 kts | 264° |
| 2026-05-07 23:43 | -34.91256 | -56.19018 | 6371 ft | 242 kts | 265° |
| 2026-05-07 23:43 | -34.91466 | -56.21080 | 7110 ft | 247 kts | 265° |
| 2026-05-07 23:43 | -34.91678 | -56.23180 | 7857 ft | 253 kts | 266° |
| 2026-05-07 23:43 | -34.91897 | -56.25338 | 8625 ft | 260 kts | 266° |
| 2026-05-07 23:44 | -34.92127 | -56.27549 | 9413 ft | 266 kts | 267° |
| 2026-05-07 23:44 | -34.92361 | -56.29810 | 10135 ft | 271 kts | 267° |
| 2026-05-07 23:44 | -34.92596 | -56.32107 | 10869 ft | 276 kts | 267° |
| 2026-05-07 23:44 | -34.92835 | -56.34446 | 11620 ft | 280 kts | 267° |
| 2026-05-07 23:45 | -34.93078 | -56.36818 | 12392 ft | 284 kts | 266° |
| 2026-05-07 23:45 | -34.93323 | -56.39182 | 13168 ft | 286 kts | 266° |
| 2026-05-07 23:45 | -34.93572 | -56.41594 | 13905 ft | 288 kts | 266° |
| 2026-05-07 23:45 | -34.93821 | -56.44024 | 14629 ft | 289 kts | 266° |
| 2026-05-07 23:46 | -34.94070 | -56.46463 | 15374 ft | 290 kts | 266° |
| 2026-05-07 23:46 | -34.94318 | -56.48901 | 16131 ft | 290 kts | 266° |
| 2026-05-07 23:46 | -34.94568 | -56.51341 | 16914 ft | 290 kts | 267° |
| 2026-05-07 23:46 | -34.94818 | -56.53798 | 17469 ft | 299 kts | 267° |
| 2026-05-07 23:47 | -34.95077 | -56.56400 | 17608 ft | 320 kts | 267° |
| 2026-05-07 23:47 | -34.95352 | -56.59181 | 17627 ft | 342 kts | 267° |
| 2026-05-07 23:47 | -34.95646 | -56.62153 | 17625 ft | 362 kts | 266° |
| 2026-05-07 23:47 | -34.95956 | -56.65227 | 17630 ft | 367 kts | 266° |
| 2026-05-07 23:48 | -34.96270 | -56.68314 | 17627 ft | 368 kts | 267° |
| 2026-05-07 23:48 | -34.96588 | -56.71417 | 17629 ft | 368 kts | 267° |
| 2026-05-07 23:48 | -34.96903 | -56.74505 | 17629 ft | 367 kts | 267° |
| 2026-05-07 23:48 | -34.97212 | -56.77587 | 17630 ft | 366 kts | 268° |
| 2026-05-07 23:49 | -34.97521 | -56.80665 | 17627 ft | 365 kts | 268° |
| 2026-05-07 23:49 | -34.97826 | -56.83676 | 17620 ft | 346 kts | 268° |
| 2026-05-07 23:49 | -34.98115 | -56.86462 | 17623 ft | 317 kts | 269° |
| 2026-05-07 23:49 | -34.98309 | -56.89016 | 17621 ft | 288 kts | 275° |
| 2026-05-07 23:50 | -34.98298 | -56.91316 | 17623 ft | 265 kts | 277° |
| 2026-05-07 23:50 | -34.98285 | -56.93533 | 17625 ft | 259 kts | 277° |
| 2026-05-07 23:50 | -34.98273 | -56.95719 | 17623 ft | 257 kts | 277° |
| 2026-05-07 23:50 | -34.98259 | -56.97903 | 17625 ft | 257 kts | 277° |
| 2026-05-07 23:51 | -34.98247 | -57.00075 | 17628 ft | 256 kts | 277° |
| 2026-05-07 23:51 | -34.98236 | -57.02247 | 17628 ft | 256 kts | 277° |
| 2026-05-07 23:51 | -34.98227 | -57.04418 | 17625 ft | 255 kts | 277° |
| 2026-05-07 23:51 | -34.98218 | -57.06580 | 17624 ft | 255 kts | 277° |
| 2026-05-07 23:52 | -34.98209 | -57.08740 | 17627 ft | 255 kts | 277° |
| 2026-05-07 23:52 | -34.98199 | -57.10897 | 17628 ft | 254 kts | 277° |
| 2026-05-07 23:52 | -34.98189 | -57.13054 | 17629 ft | 254 kts | 277° |
| 2026-05-07 23:52 | -34.98177 | -57.15212 | 17630 ft | 254 kts | 277° |
| 2026-05-07 23:53 | -34.98166 | -57.17366 | 17633 ft | 254 kts | 277° |
| 2026-05-07 23:53 | -34.98154 | -57.19523 | 17640 ft | 254 kts | 277° |
| 2026-05-07 23:53 | -34.98142 | -57.21675 | 17643 ft | 254 kts | 277° |
| 2026-05-07 23:53 | -34.98133 | -57.23828 | 17646 ft | 254 kts | 277° |
| 2026-05-07 23:54 | -34.98122 | -57.25949 | 17645 ft | 254 kts | 277° |
| 2026-05-07 23:54 | -34.98110 | -57.28102 | 17505 ft | 256 kts | 277° |
| 2026-05-07 23:54 | -34.97905 | -57.30205 | 17240 ft | 245 kts | 293° |
| 2026-05-07 23:54 | -34.97284 | -57.32225 | 16988 ft | 271 kts | 295° |
| 2026-05-07 23:55 | -34.96552 | -57.34507 | 16722 ft | 305 kts | 295° |
| 2026-05-07 23:55 | -34.95759 | -57.36978 | 16459 ft | 318 kts | 295° |
| 2026-05-07 23:55 | -34.94953 | -57.39512 | 16199 ft | 319 kts | 295° |
| 2026-05-07 23:55 | -34.94164 | -57.42012 | 15837 ft | 315 kts | 295° |
| 2026-05-07 23:56 | -34.93378 | -57.44501 | 15394 ft | 314 kts | 295° |
| 2026-05-07 23:56 | -34.92590 | -57.46981 | 14932 ft | 314 kts | 295° |
| 2026-05-07 23:56 | -34.91802 | -57.49453 | 14504 ft | 314 kts | 295° |
| 2026-05-07 23:56 | -34.91010 | -57.51931 | 14070 ft | 314 kts | 296° |
| 2026-05-07 23:57 | -34.90216 | -57.54411 | 13645 ft | 315 kts | 296° |
| 2026-05-07 23:57 | -34.89421 | -57.56894 | 13203 ft | 315 kts | 296° |
| 2026-05-07 23:57 | -34.88621 | -57.59384 | 12728 ft | 316 kts | 296° |
| 2026-05-07 23:57 | -34.87821 | -57.61874 | 12271 ft | 316 kts | 296° |
| 2026-05-07 23:58 | -34.87019 | -57.64361 | 11789 ft | 315 kts | 296° |
| 2026-05-07 23:58 | -34.86221 | -57.66841 | 11343 ft | 314 kts | 295° |
| 2026-05-07 23:58 | -34.85425 | -57.69311 | 10899 ft | 313 kts | 295° |
| 2026-05-07 23:58 | -34.84634 | -57.71771 | 10462 ft | 311 kts | 295° |
| 2026-05-07 23:59 | -34.83859 | -57.74185 | 10031 ft | 310 kts | 295° |
| 2026-05-07 23:59 | -34.83076 | -57.76618 | 9599 ft | 308 kts | 295° |
| 2026-05-07 23:59 | -34.82300 | -57.79020 | 9135 ft | 300 kts | 295° |
| 2026-05-07 23:59 | -34.81559 | -57.81323 | 8655 ft | 286 kts | 294° |
| 2026-05-08 00:00 | -34.80850 | -57.83526 | 8198 ft | 274 kts | 294° |
| 2026-05-08 00:00 | -34.80169 | -57.85640 | 7744 ft | 263 kts | 293° |
| 2026-05-08 00:00 | -34.79512 | -57.87667 | 7320 ft | 253 kts | 292° |
| 2026-05-08 00:00 | -34.78878 | -57.89620 | 6898 ft | 243 kts | 292° |
| 2026-05-08 00:01 | -34.78267 | -57.91498 | 6472 ft | 235 kts | 291° |
| 2026-05-08 00:01 | -34.77668 | -57.93330 | 6065 ft | 232 kts | 290° |
| 2026-05-08 00:01 | -34.77076 | -57.95146 | 5629 ft | 230 kts | 290° |
| 2026-05-08 00:01 | -34.76489 | -57.96946 | 5192 ft | 229 kts | 289° |
| 2026-05-08 00:02 | -34.75896 | -57.98765 | 4765 ft | 232 kts | 288° |
| 2026-05-08 00:02 | -34.75310 | -58.00556 | 4621 ft | 223 kts | 288° |
| 2026-05-08 00:02 | -34.74743 | -58.02296 | 4632 ft | 220 kts | 288° |
| 2026-05-08 00:02 | -34.74183 | -58.04029 | 4528 ft | 220 kts | 287° |
| 2026-05-08 00:03 | -34.73625 | -58.05750 | 4237 ft | 218 kts | 287° |
| 2026-05-08 00:03 | -34.73066 | -58.07462 | 3956 ft | 217 kts | 287° |
| 2026-05-08 00:03 | -34.72609 | -58.08858 | 3745 ft | 216 kts | 287° |
| 2026-05-08 00:03 | -34.72054 | -58.10552 | 3491 ft | 215 kts | 286° |
| 2026-05-08 00:04 | -34.71506 | -58.12225 | 3245 ft | 211 kts | 286° |
| 2026-05-08 00:04 | -34.70978 | -58.13837 | 3049 ft | 205 kts | 285° |
| 2026-05-08 00:04 | -34.70418 | -58.15443 | 2838 ft | 204 kts | 292° |
| 2026-05-08 00:04 | -34.69653 | -58.16886 | 2636 ft | 206 kts | 296° |
| 2026-05-08 00:05 | -34.68852 | -58.18325 | 2526 ft | 206 kts | 296° |
| 2026-05-08 00:05 | -34.68053 | -58.19760 | 2483 ft | 205 kts | 296° |
| 2026-05-08 00:05 | -34.67255 | -58.21195 | 2490 ft | 205 kts | 297° |
| 2026-05-08 00:05 | -34.66460 | -58.22624 | 2491 ft | 199 kts | 297° |
| 2026-05-08 00:06 | -34.65710 | -58.23966 | 2486 ft | 185 kts | 296° |
| 2026-05-08 00:06 | -34.65004 | -58.25227 | 2491 ft | 177 kts | 296° |
| 2026-05-08 00:06 | -34.64320 | -58.26459 | 2496 ft | 175 kts | 296° |
| 2026-05-08 00:06 | -34.63647 | -58.27670 | 2525 ft | 167 kts | 296° |
| 2026-05-08 00:07 | -34.63023 | -58.28782 | 2457 ft | 154 kts | 295° |
| 2026-05-08 00:07 | -34.62426 | -58.29858 | 2229 ft | 153 kts | 295° |
| 2026-05-08 00:07 | -34.61840 | -58.30919 | 2019 ft | 150 kts | 295° |
| 2026-05-08 00:07 | -34.61266 | -58.31952 | 1803 ft | 144 kts | 296° |
| 2026-05-08 00:08 | -34.60726 | -58.32918 | 1641 ft | 134 kts | 296° |
| 2026-05-08 00:08 | -34.60209 | -58.33848 | 1437 ft | 131 kts | 297° |
| 2026-05-08 00:08 | -34.59699 | -58.34765 | 1250 ft | 131 kts | 297° |
| 2026-05-08 00:08 | -34.59191 | -58.35676 | 1066 ft | 130 kts | 297° |
| 2026-05-08 00:09 | -34.58690 | -58.36582 | 866 ft | 130 kts | 297° |
| 2026-05-08 00:09 | -34.58204 | -58.37505 | 750 ft | 131 kts | 298° |
| 2026-05-08 00:09 | -34.57687 | -58.38421 | 578 ft | 132 kts | 299° |
| 2026-05-08 00:09 | -34.57175 | -58.39345 | 369 ft | 134 kts | 302° |
| 2026-05-08 00:10 | -34.56650 | -58.40288 | 140 ft | 133 kts | 302° |
| 2026-05-08 00:10 | -34.56137 | -58.41192 | 29 ft | 122 kts | 300° |
| 2026-05-08 00:10 | -34.55799 | -58.41814 | 25 ft | 34 kts | 304° |
| 2026-05-08 00:10 | -34.55697 | -58.41905 | 25 ft | 15 kts | 23° |
| 2026-05-08 00:11 | -34.55691 | -58.41837 | 29 ft | 6 kts | 122° |
| 2026-05-08 00:11 | -34.55691 | -58.41836 | 29 ft | 0 kts | 122° |
| 2026-05-08 00:12 | -34.55711 | -58.41801 | 29 ft | 11 kts | 124° |
| 2026-05-08 00:13 | -34.55746 | -58.41729 | 26 ft | 10 kts | 117° |
| 2026-05-08 00:13 | -34.55778 | -58.41651 | 27 ft | 16 kts | 116° |
| 2026-05-08 00:13 | -34.55837 | -58.41508 | 30 ft | 18 kts | 117° |
| 2026-05-08 00:13 | -34.55890 | -58.41384 | 25 ft | 15 kts | 117° |
| 2026-05-08 00:14 | -34.55889 | -58.41298 | 27 ft | 10 kts | 41° |
| 2026-05-08 00:14 | -34.55828 | -58.41275 | 25 ft | 8 kts | 27° |
| 2026-05-08 00:14 | -34.55801 | -58.41253 | 27 ft | 0 kts | 35° |